sensor_id;sensor_type;location;lat;lon;timestamp;P1;durP1;ratioP1;P2;durP2;ratioP2
920;SDS011;447;51.332;6.778;2023-01-24T00:01:21;12.18;;;8.68;;
920;SDS011;447;51.332;6.778;2023-01-24T00:03:49;13.40;;;9.10;;
920;SDS011;447;51.332;6.778;2023-01-24T00:06:15;12.35;;;8.35;;
920;SDS011;447;51.332;6.778;2023-01-24T00:08:41;11.30;;;8.73;;
920;SDS011;447;51.332;6.778;2023-01-24T00:11:09;10.37;;;7.83;;
920;SDS011;447;51.332;6.778;2023-01-24T00:13:38;12.23;;;8.82;;
920;SDS011;447;51.332;6.778;2023-01-24T00:18:35;11.13;;;7.93;;
920;SDS011;447;51.332;6.778;2023-01-24T00:21:03;13.00;;;8.70;;
920;SDS011;447;51.332;6.778;2023-01-24T00:23:31;11.75;;;8.27;;
920;SDS011;447;51.332;6.778;2023-01-24T00:26:09;10.25;;;8.40;;
920;SDS011;447;51.332;6.778;2023-01-24T00:28:38;10.77;;;7.90;;
920;SDS011;447;51.332;6.778;2023-01-24T00:31:05;13.73;;;9.05;;
920;SDS011;447;51.332;6.778;2023-01-24T00:33:33;11.57;;;8.27;;
920;SDS011;447;51.332;6.778;2023-01-24T00:36:00;9.70;;;7.88;;
920;SDS011;447;51.332;6.778;2023-01-24T00:38:35;13.60;;;9.20;;
920;SDS011;447;51.332;6.778;2023-01-24T00:41:06;10.27;;;8.23;;
920;SDS011;447;51.332;6.778;2023-01-24T00:43:34;13.05;;;8.65;;
920;SDS011;447;51.332;6.778;2023-01-24T00:46:00;14.20;;;9.10;;
920;SDS011;447;51.332;6.778;2023-01-24T00:48:32;11.43;;;7.65;;
920;SDS011;447;51.332;6.778;2023-01-24T00:50:59;13.15;;;8.73;;
920;SDS011;447;51.332;6.778;2023-01-24T00:53:25;10.48;;;7.95;;
920;SDS011;447;51.332;6.778;2023-01-24T00:55:53;12.35;;;9.35;;
920;SDS011;447;51.332;6.778;2023-01-24T00:58:22;11.95;;;8.50;;
920;SDS011;447;51.332;6.778;2023-01-24T01:00:48;9.80;;;8.18;;
920;SDS011;447;51.332;6.778;2023-01-24T01:03:16;10.45;;;7.78;;
920;SDS011;447;51.332;6.778;2023-01-24T01:05:46;11.75;;;8.80;;
920;SDS011;447;51.332;6.778;2023-01-24T01:08:12;11.82;;;7.93;;
920;SDS011;447;51.332;6.778;2023-01-24T01:10:43;12.43;;;8.70;;
920;SDS011;447;51.332;6.778;2023-01-24T01:13:09;15.18;;;9.52;;
920;SDS011;447;51.332;6.778;2023-01-24T01:15:37;11.20;;;8.65;;
920;SDS011;447;51.332;6.778;2023-01-24T01:18:03;13.50;;;8.55;;
920;SDS011;447;51.332;6.778;2023-01-24T01:20:33;12.18;;;9.25;;
920;SDS011;447;51.332;6.778;2023-01-24T01:23:00;10.87;;;7.83;;
920;SDS011;447;51.332;6.778;2023-01-24T01:25:25;11.17;;;7.57;;
920;SDS011;447;51.332;6.778;2023-01-24T01:27:51;9.60;;;7.47;;
920;SDS011;447;51.332;6.778;2023-01-24T01:30:18;14.18;;;8.90;;
920;SDS011;447;51.332;6.778;2023-01-24T01:32:44;12.30;;;8.48;;
920;SDS011;447;51.332;6.778;2023-01-24T01:35:10;12.10;;;8.05;;
920;SDS011;447;51.332;6.778;2023-01-24T01:37:37;11.18;;;8.27;;
920;SDS011;447;51.332;6.778;2023-01-24T01:40:03;12.70;;;8.63;;
920;SDS011;447;51.332;6.778;2023-01-24T01:42:48;12.10;;;9.05;;
920;SDS011;447;51.332;6.778;2023-01-24T01:47:57;12.27;;;8.55;;
920;SDS011;447;51.332;6.778;2023-01-24T01:50:26;11.45;;;8.00;;
920;SDS011;447;51.332;6.778;2023-01-24T01:52:56;11.38;;;7.75;;
920;SDS011;447;51.332;6.778;2023-01-24T01:55:24;10.00;;;7.82;;
920;SDS011;447;51.332;6.778;2023-01-24T01:57:53;10.50;;;8.45;;
920;SDS011;447;51.332;6.778;2023-01-24T02:00:23;9.75;;;7.38;;
920;SDS011;447;51.332;6.778;2023-01-24T02:02:54;11.65;;;8.20;;
920;SDS011;447;51.332;6.778;2023-01-24T02:05:48;8.77;;;7.25;;
920;SDS011;447;51.332;6.778;2023-01-24T02:08:19;10.23;;;7.20;;
920;SDS011;447;51.332;6.778;2023-01-24T02:10:47;11.77;;;7.43;;
920;SDS011;447;51.332;6.778;2023-01-24T02:13:33;11.50;;;7.57;;
920;SDS011;447;51.332;6.778;2023-01-24T02:16:09;11.57;;;8.35;;
920;SDS011;447;51.332;6.778;2023-01-24T02:18:42;11.55;;;8.05;;
920;SDS011;447;51.332;6.778;2023-01-24T02:21:11;10.02;;;8.05;;
920;SDS011;447;51.332;6.778;2023-01-24T02:26:16;9.38;;;7.28;;
920;SDS011;447;51.332;6.778;2023-01-24T02:31:24;8.20;;;6.97;;
920;SDS011;447;51.332;6.778;2023-01-24T02:33:50;12.18;;;8.70;;
920;SDS011;447;51.332;6.778;2023-01-24T02:39:06;8.70;;;6.88;;
920;SDS011;447;51.332;6.778;2023-01-24T02:41:45;9.25;;;6.57;;
920;SDS011;447;51.332;6.778;2023-01-24T02:44:18;8.85;;;7.05;;
920;SDS011;447;51.332;6.778;2023-01-24T02:46:52;10.20;;;7.30;;
920;SDS011;447;51.332;6.778;2023-01-24T02:49:21;8.65;;;6.63;;
920;SDS011;447;51.332;6.778;2023-01-24T02:51:47;9.73;;;6.78;;
920;SDS011;447;51.332;6.778;2023-01-24T02:54:34;7.38;;;6.55;;
920;SDS011;447;51.332;6.778;2023-01-24T02:57:05;9.63;;;6.80;;
920;SDS011;447;51.332;6.778;2023-01-24T02:59:50;11.15;;;7.07;;
920;SDS011;447;51.332;6.778;2023-01-24T03:02:19;9.05;;;6.68;;
920;SDS011;447;51.332;6.778;2023-01-24T03:04:48;9.10;;;6.20;;
920;SDS011;447;51.332;6.778;2023-01-24T03:07:17;9.93;;;6.72;;
920;SDS011;447;51.332;6.778;2023-01-24T03:09:51;8.80;;;6.55;;
920;SDS011;447;51.332;6.778;2023-01-24T03:12:22;9.38;;;6.50;;
920;SDS011;447;51.332;6.778;2023-01-24T03:15:09;9.35;;;7.03;;
920;SDS011;447;51.332;6.778;2023-01-24T03:17:57;8.48;;;6.05;;
920;SDS011;447;51.332;6.778;2023-01-24T03:20:45;8.95;;;6.10;;
920;SDS011;447;51.332;6.778;2023-01-24T03:23:31;9.80;;;6.72;;
920;SDS011;447;51.332;6.778;2023-01-24T03:26:15;8.57;;;6.40;;
920;SDS011;447;51.332;6.778;2023-01-24T03:29:01;10.00;;;6.97;;
920;SDS011;447;51.332;6.778;2023-01-24T03:31:46;8.63;;;6.40;;
920;SDS011;447;51.332;6.778;2023-01-24T03:34:31;10.88;;;6.28;;
920;SDS011;447;51.332;6.778;2023-01-24T03:37:01;9.07;;;6.07;;
920;SDS011;447;51.332;6.778;2023-01-24T03:39:27;8.70;;;6.32;;
920;SDS011;447;51.332;6.778;2023-01-24T03:42:11;7.32;;;5.70;;
920;SDS011;447;51.332;6.778;2023-01-24T03:44:40;7.10;;;5.68;;
920;SDS011;447;51.332;6.778;2023-01-24T03:47:06;7.03;;;5.88;;
920;SDS011;447;51.332;6.778;2023-01-24T03:49:35;8.55;;;6.35;;
920;SDS011;447;51.332;6.778;2023-01-24T03:52:19;9.50;;;6.40;;
920;SDS011;447;51.332;6.778;2023-01-24T03:54:58;8.50;;;5.95;;
920;SDS011;447;51.332;6.778;2023-01-24T03:57:28;8.57;;;5.85;;
920;SDS011;447;51.332;6.778;2023-01-24T03:59:58;9.00;;;5.70;;
920;SDS011;447;51.332;6.778;2023-01-24T04:02:24;8.30;;;5.55;;
920;SDS011;447;51.332;6.778;2023-01-24T04:04:51;10.47;;;6.30;;
920;SDS011;447;51.332;6.778;2023-01-24T04:07:35;10.13;;;6.85;;
920;SDS011;447;51.332;6.778;2023-01-24T04:10:04;8.75;;;6.50;;
920;SDS011;447;51.332;6.778;2023-01-24T04:12:37;6.95;;;5.70;;
920;SDS011;447;51.332;6.778;2023-01-24T04:15:03;9.55;;;6.50;;
920;SDS011;447;51.332;6.778;2023-01-24T04:17:34;7.80;;;6.18;;
920;SDS011;447;51.332;6.778;2023-01-24T04:20:04;9.30;;;6.75;;
920;SDS011;447;51.332;6.778;2023-01-24T04:22:30;8.95;;;6.57;;
920;SDS011;447;51.332;6.778;2023-01-24T04:24:58;9.32;;;6.38;;
920;SDS011;447;51.332;6.778;2023-01-24T04:27:30;9.15;;;6.70;;
920;SDS011;447;51.332;6.778;2023-01-24T04:30:08;8.90;;;6.85;;
920;SDS011;447;51.332;6.778;2023-01-24T04:32:37;6.32;;;5.18;;
920;SDS011;447;51.332;6.778;2023-01-24T04:35:23;8.80;;;6.50;;
920;SDS011;447;51.332;6.778;2023-01-24T04:38:01;6.80;;;5.70;;
920;SDS011;447;51.332;6.778;2023-01-24T04:40:42;6.93;;;5.45;;
920;SDS011;447;51.332;6.778;2023-01-24T04:43:08;6.38;;;4.93;;
920;SDS011;447;51.332;6.778;2023-01-24T04:45:34;6.40;;;5.28;;
920;SDS011;447;51.332;6.778;2023-01-24T04:48:07;8.95;;;6.60;;
920;SDS011;447;51.332;6.778;2023-01-24T04:50:35;6.90;;;5.55;;
920;SDS011;447;51.332;6.778;2023-01-24T04:53:04;8.32;;;6.78;;
920;SDS011;447;51.332;6.778;2023-01-24T04:55:31;7.72;;;5.63;;
920;SDS011;447;51.332;6.778;2023-01-24T04:57:59;5.93;;;5.30;;
920;SDS011;447;51.332;6.778;2023-01-24T05:00:25;7.72;;;5.55;;
920;SDS011;447;51.332;6.778;2023-01-24T05:02:51;7.37;;;5.60;;
920;SDS011;447;51.332;6.778;2023-01-24T05:05:19;7.95;;;5.30;;
920;SDS011;447;51.332;6.778;2023-01-24T05:07:45;6.40;;;5.65;;
920;SDS011;447;51.332;6.778;2023-01-24T05:10:15;7.47;;;5.30;;
920;SDS011;447;51.332;6.778;2023-01-24T05:12:43;7.50;;;6.00;;
920;SDS011;447;51.332;6.778;2023-01-24T05:15:17;7.25;;;5.63;;
920;SDS011;447;51.332;6.778;2023-01-24T05:17:47;7.75;;;5.70;;
920;SDS011;447;51.332;6.778;2023-01-24T05:20:17;7.82;;;6.30;;
920;SDS011;447;51.332;6.778;2023-01-24T05:22:43;8.88;;;6.07;;
920;SDS011;447;51.332;6.778;2023-01-24T05:25:17;7.90;;;5.30;;
920;SDS011;447;51.332;6.778;2023-01-24T05:27:45;7.88;;;5.47;;
920;SDS011;447;51.332;6.778;2023-01-24T05:30:13;7.82;;;6.05;;
920;SDS011;447;51.332;6.778;2023-01-24T05:32:39;6.18;;;4.93;;
920;SDS011;447;51.332;6.778;2023-01-24T05:35:06;9.05;;;6.80;;
920;SDS011;447;51.332;6.778;2023-01-24T05:37:35;7.43;;;5.55;;
920;SDS011;447;51.332;6.778;2023-01-24T05:40:03;7.80;;;5.80;;
920;SDS011;447;51.332;6.778;2023-01-24T05:42:29;8.85;;;6.18;;
920;SDS011;447;51.332;6.778;2023-01-24T05:44:58;8.43;;;6.35;;
920;SDS011;447;51.332;6.778;2023-01-24T05:47:27;7.47;;;5.82;;
920;SDS011;447;51.332;6.778;2023-01-24T05:49:53;8.70;;;5.90;;
920;SDS011;447;51.332;6.778;2023-01-24T05:52:19;8.40;;;6.57;;
920;SDS011;447;51.332;6.778;2023-01-24T05:54:55;8.70;;;5.70;;
920;SDS011;447;51.332;6.778;2023-01-24T05:57:33;9.60;;;6.82;;
920;SDS011;447;51.332;6.778;2023-01-24T06:00:17;8.93;;;6.45;;
920;SDS011;447;51.332;6.778;2023-01-24T06:03:09;8.50;;;6.97;;
920;SDS011;447;51.332;6.778;2023-01-24T06:05:35;6.82;;;5.35;;
920;SDS011;447;51.332;6.778;2023-01-24T06:08:01;7.75;;;6.50;;
920;SDS011;447;51.332;6.778;2023-01-24T06:10:27;9.27;;;6.05;;
920;SDS011;447;51.332;6.778;2023-01-24T06:13:01;9.02;;;6.18;;
920;SDS011;447;51.332;6.778;2023-01-24T06:15:27;8.40;;;7.28;;
920;SDS011;447;51.332;6.778;2023-01-24T06:17:54;8.55;;;7.03;;
920;SDS011;447;51.332;6.778;2023-01-24T06:20:21;7.93;;;6.50;;
920;SDS011;447;51.332;6.778;2023-01-24T06:22:53;10.88;;;7.30;;
920;SDS011;447;51.332;6.778;2023-01-24T06:25:23;9.45;;;7.28;;
920;SDS011;447;51.332;6.778;2023-01-24T06:27:50;9.43;;;7.20;;
920;SDS011;447;51.332;6.778;2023-01-24T06:30:18;8.90;;;6.35;;
920;SDS011;447;51.332;6.778;2023-01-24T06:38:22;10.43;;;6.53;;
920;SDS011;447;51.332;6.778;2023-01-24T06:40:52;10.40;;;7.05;;
920;SDS011;447;51.332;6.778;2023-01-24T06:43:22;9.95;;;7.63;;
920;SDS011;447;51.332;6.778;2023-01-24T06:45:49;8.63;;;6.30;;
920;SDS011;447;51.332;6.778;2023-01-24T06:48:18;10.05;;;6.60;;
920;SDS011;447;51.332;6.778;2023-01-24T06:50:44;7.73;;;6.80;;
920;SDS011;447;51.332;6.778;2023-01-24T06:53:10;8.82;;;6.85;;
920;SDS011;447;51.332;6.778;2023-01-24T06:55:37;8.65;;;6.78;;
920;SDS011;447;51.332;6.778;2023-01-24T06:58:03;8.93;;;6.50;;
920;SDS011;447;51.332;6.778;2023-01-24T07:00:30;11.88;;;7.75;;
920;SDS011;447;51.332;6.778;2023-01-24T07:02:59;10.35;;;7.15;;
920;SDS011;447;51.332;6.778;2023-01-24T07:05:28;8.77;;;6.55;;
920;SDS011;447;51.332;6.778;2023-01-24T07:07:54;10.02;;;7.22;;
920;SDS011;447;51.332;6.778;2023-01-24T07:10:20;9.80;;;7.45;;
920;SDS011;447;51.332;6.778;2023-01-24T07:12:48;10.15;;;7.35;;
920;SDS011;447;51.332;6.778;2023-01-24T07:15:17;9.13;;;7.13;;
920;SDS011;447;51.332;6.778;2023-01-24T07:17:44;10.15;;;7.80;;
920;SDS011;447;51.332;6.778;2023-01-24T07:20:11;10.02;;;7.25;;
920;SDS011;447;51.332;6.778;2023-01-24T07:22:39;10.93;;;7.50;;
920;SDS011;447;51.332;6.778;2023-01-24T07:25:12;10.27;;;7.88;;
920;SDS011;447;51.332;6.778;2023-01-24T07:27:44;14.63;;;7.90;;
920;SDS011;447;51.332;6.778;2023-01-24T07:30:11;10.25;;;7.32;;
920;SDS011;447;51.332;6.778;2023-01-24T07:32:40;14.70;;;8.68;;
920;SDS011;447;51.332;6.778;2023-01-24T07:35:06;10.50;;;7.50;;
920;SDS011;447;51.332;6.778;2023-01-24T07:37:33;11.82;;;7.78;;
920;SDS011;447;51.332;6.778;2023-01-24T07:40:01;9.43;;;7.23;;
920;SDS011;447;51.332;6.778;2023-01-24T07:42:28;10.38;;;7.55;;
920;SDS011;447;51.332;6.778;2023-01-24T07:44:56;11.50;;;8.13;;
920;SDS011;447;51.332;6.778;2023-01-24T07:47:27;11.75;;;9.00;;
920;SDS011;447;51.332;6.778;2023-01-24T07:49:56;11.20;;;8.50;;
920;SDS011;447;51.332;6.778;2023-01-24T07:52:24;11.15;;;8.23;;
920;SDS011;447;51.332;6.778;2023-01-24T07:54:50;10.20;;;7.67;;
920;SDS011;447;51.332;6.778;2023-01-24T07:57:16;10.90;;;8.40;;
920;SDS011;447;51.332;6.778;2023-01-24T07:59:42;10.57;;;8.02;;
920;SDS011;447;51.332;6.778;2023-01-24T08:02:10;11.65;;;7.63;;
920;SDS011;447;51.332;6.778;2023-01-24T08:04:37;12.03;;;8.00;;
920;SDS011;447;51.332;6.778;2023-01-24T08:07:03;10.93;;;8.25;;
920;SDS011;447;51.332;6.778;2023-01-24T08:09:42;13.30;;;9.00;;
920;SDS011;447;51.332;6.778;2023-01-24T08:12:08;10.63;;;8.07;;
920;SDS011;447;51.332;6.778;2023-01-24T08:14:34;12.00;;;8.17;;
920;SDS011;447;51.332;6.778;2023-01-24T08:17:00;12.43;;;9.30;;
920;SDS011;447;51.332;6.778;2023-01-24T08:19:28;11.97;;;7.93;;
920;SDS011;447;51.332;6.778;2023-01-24T08:21:54;11.38;;;8.40;;
920;SDS011;447;51.332;6.778;2023-01-24T08:24:20;10.50;;;7.50;;
920;SDS011;447;51.332;6.778;2023-01-24T08:26:49;10.07;;;7.55;;
920;SDS011;447;51.332;6.778;2023-01-24T08:29:16;11.25;;;8.18;;
920;SDS011;447;51.332;6.778;2023-01-24T08:31:44;10.55;;;8.40;;
920;SDS011;447;51.332;6.778;2023-01-24T08:34:10;10.77;;;7.72;;
920;SDS011;447;51.332;6.778;2023-01-24T08:36:36;10.30;;;7.80;;
920;SDS011;447;51.332;6.778;2023-01-24T08:39:02;10.60;;;8.10;;
920;SDS011;447;51.332;6.778;2023-01-24T08:41:29;11.55;;;8.35;;
920;SDS011;447;51.332;6.778;2023-01-24T08:43:55;10.65;;;8.45;;
920;SDS011;447;51.332;6.778;2023-01-24T08:46:23;11.00;;;8.15;;
920;SDS011;447;51.332;6.778;2023-01-24T08:48:51;10.95;;;8.23;;
920;SDS011;447;51.332;6.778;2023-01-24T08:51:19;9.80;;;7.00;;
920;SDS011;447;51.332;6.778;2023-01-24T08:53:45;11.03;;;8.40;;
920;SDS011;447;51.332;6.778;2023-01-24T08:56:11;10.73;;;8.48;;
920;SDS011;447;51.332;6.778;2023-01-24T08:58:37;10.18;;;7.82;;
920;SDS011;447;51.332;6.778;2023-01-24T09:01:07;12.60;;;9.15;;
920;SDS011;447;51.332;6.778;2023-01-24T09:03:34;12.25;;;9.02;;
920;SDS011;447;51.332;6.778;2023-01-24T09:06:00;11.00;;;7.70;;
920;SDS011;447;51.332;6.778;2023-01-24T09:08:27;11.45;;;8.15;;
920;SDS011;447;51.332;6.778;2023-01-24T09:10:53;10.13;;;7.35;;
920;SDS011;447;51.332;6.778;2023-01-24T09:13:22;8.80;;;7.00;;
920;SDS011;447;51.332;6.778;2023-01-24T09:15:48;11.23;;;8.03;;
920;SDS011;447;51.332;6.778;2023-01-24T09:18:14;12.40;;;8.35;;
920;SDS011;447;51.332;6.778;2023-01-24T09:20:42;11.83;;;8.53;;
920;SDS011;447;51.332;6.778;2023-01-24T09:23:11;9.68;;;8.07;;
920;SDS011;447;51.332;6.778;2023-01-24T09:25:39;11.43;;;8.52;;
920;SDS011;447;51.332;6.778;2023-01-24T09:28:09;10.77;;;8.30;;
920;SDS011;447;51.332;6.778;2023-01-24T09:30:35;10.67;;;8.03;;
920;SDS011;447;51.332;6.778;2023-01-24T09:33:04;10.70;;;7.97;;
920;SDS011;447;51.332;6.778;2023-01-24T09:35:36;10.98;;;8.23;;
920;SDS011;447;51.332;6.778;2023-01-24T09:38:02;10.63;;;7.60;;
920;SDS011;447;51.332;6.778;2023-01-24T09:40:35;10.30;;;7.68;;
920;SDS011;447;51.332;6.778;2023-01-24T09:43:13;10.32;;;8.23;;
920;SDS011;447;51.332;6.778;2023-01-24T09:46:32;9.82;;;6.95;;
920;SDS011;447;51.332;6.778;2023-01-24T09:49:02;9.20;;;7.15;;
920;SDS011;447;51.332;6.778;2023-01-24T09:51:51;11.40;;;7.93;;
920;SDS011;447;51.332;6.778;2023-01-24T09:54:28;9.18;;;7.18;;
920;SDS011;447;51.332;6.778;2023-01-24T09:57:09;8.43;;;7.20;;
920;SDS011;447;51.332;6.778;2023-01-24T09:59:42;9.68;;;7.40;;
920;SDS011;447;51.332;6.778;2023-01-24T10:02:15;9.80;;;7.45;;
920;SDS011;447;51.332;6.778;2023-01-24T10:04:43;7.95;;;6.45;;
920;SDS011;447;51.332;6.778;2023-01-24T10:07:28;11.50;;;7.03;;
920;SDS011;447;51.332;6.778;2023-01-24T10:21:55;9.38;;;7.00;;
920;SDS011;447;51.332;6.778;2023-01-24T10:24:49;9.23;;;6.40;;
920;SDS011;447;51.332;6.778;2023-01-24T10:27:25;8.90;;;6.85;;
920;SDS011;447;51.332;6.778;2023-01-24T10:30:05;8.73;;;6.85;;
920;SDS011;447;51.332;6.778;2023-01-24T10:32:44;9.30;;;6.95;;
920;SDS011;447;51.332;6.778;2023-01-24T10:35:23;9.45;;;6.68;;
920;SDS011;447;51.332;6.778;2023-01-24T10:37:57;8.07;;;6.05;;
920;SDS011;447;51.332;6.778;2023-01-24T10:40:25;8.18;;;6.75;;
920;SDS011;447;51.332;6.778;2023-01-24T10:42:52;8.30;;;6.30;;
920;SDS011;447;51.332;6.778;2023-01-24T10:45:28;8.38;;;6.63;;
920;SDS011;447;51.332;6.778;2023-01-24T10:51:18;8.10;;;6.00;;
920;SDS011;447;51.332;6.778;2023-01-24T10:53:46;9.27;;;6.63;;
920;SDS011;447;51.332;6.778;2023-01-24T10:56:17;9.38;;;7.63;;
920;SDS011;447;51.332;6.778;2023-01-24T10:58:56;9.10;;;7.15;;
920;SDS011;447;51.332;6.778;2023-01-24T11:01:35;9.15;;;7.28;;
920;SDS011;447;51.332;6.778;2023-01-24T11:06:59;7.97;;;5.97;;
920;SDS011;447;51.332;6.778;2023-01-24T11:09:27;10.35;;;7.18;;
920;SDS011;447;51.332;6.778;2023-01-24T11:11:56;10.45;;;6.72;;
920;SDS011;447;51.332;6.778;2023-01-24T11:14:25;9.68;;;7.22;;
920;SDS011;447;51.332;6.778;2023-01-24T11:16:57;7.82;;;6.35;;
920;SDS011;447;51.332;6.778;2023-01-24T11:19:28;9.57;;;7.40;;
920;SDS011;447;51.332;6.778;2023-01-24T11:24:52;7.50;;;6.05;;
920;SDS011;447;51.332;6.778;2023-01-24T11:27:22;9.20;;;6.82;;
920;SDS011;447;51.332;6.778;2023-01-24T11:33:01;9.13;;;6.57;;
920;SDS011;447;51.332;6.778;2023-01-24T11:35:54;8.80;;;6.78;;
920;SDS011;447;51.332;6.778;2023-01-24T11:38:37;9.68;;;7.43;;
920;SDS011;447;51.332;6.778;2023-01-24T11:46:26;8.23;;;6.85;;
920;SDS011;447;51.332;6.778;2023-01-24T11:51:38;10.10;;;7.63;;
920;SDS011;447;51.332;6.778;2023-01-24T12:10:39;9.03;;;6.37;;
920;SDS011;447;51.332;6.778;2023-01-24T12:13:25;9.43;;;7.60;;
920;SDS011;447;51.332;6.778;2023-01-24T12:19:01;8.00;;;6.75;;
920;SDS011;447;51.332;6.778;2023-01-24T12:21:56;10.88;;;6.78;;
920;SDS011;447;51.332;6.778;2023-01-24T12:26:59;9.77;;;7.45;;
920;SDS011;447;51.332;6.778;2023-01-24T12:40:22;9.93;;;7.88;;
920;SDS011;447;51.332;6.778;2023-01-24T12:43:04;9.90;;;7.40;;
920;SDS011;447;51.332;6.778;2023-01-24T12:45:55;9.38;;;7.45;;
920;SDS011;447;51.332;6.778;2023-01-24T12:51:26;9.90;;;7.25;;
920;SDS011;447;51.332;6.778;2023-01-24T12:56:51;9.70;;;7.13;;
920;SDS011;447;51.332;6.778;2023-01-24T12:59:28;8.63;;;7.38;;
920;SDS011;447;51.332;6.778;2023-01-24T13:13:35;9.95;;;6.75;;
920;SDS011;447;51.332;6.778;2023-01-24T13:16:13;11.10;;;7.63;;
920;SDS011;447;51.332;6.778;2023-01-24T13:27:16;9.75;;;7.60;;
920;SDS011;447;51.332;6.778;2023-01-24T13:32:45;10.38;;;8.30;;
920;SDS011;447;51.332;6.778;2023-01-24T13:35:18;8.52;;;7.03;;
920;SDS011;447;51.332;6.778;2023-01-24T13:37:50;10.50;;;7.50;;
920;SDS011;447;51.332;6.778;2023-01-24T13:40:27;8.98;;;6.75;;
920;SDS011;447;51.332;6.778;2023-01-24T13:43:03;9.35;;;7.57;;
920;SDS011;447;51.332;6.778;2023-01-24T13:45:49;10.00;;;7.75;;
920;SDS011;447;51.332;6.778;2023-01-24T13:51:30;8.98;;;8.07;;
920;SDS011;447;51.332;6.778;2023-01-24T13:54:03;10.27;;;7.80;;
920;SDS011;447;51.332;6.778;2023-01-24T13:59:40;9.02;;;7.55;;
920;SDS011;447;51.332;6.778;2023-01-24T14:02:23;8.93;;;7.43;;
920;SDS011;447;51.332;6.778;2023-01-24T14:04:54;10.00;;;8.10;;
920;SDS011;447;51.332;6.778;2023-01-24T14:07:36;12.20;;;8.85;;
920;SDS011;447;51.332;6.778;2023-01-24T14:10:09;11.25;;;8.88;;
920;SDS011;447;51.332;6.778;2023-01-24T14:12:39;9.68;;;7.57;;
920;SDS011;447;51.332;6.778;2023-01-24T14:23:03;11.30;;;8.75;;
920;SDS011;447;51.332;6.778;2023-01-24T14:25:43;10.93;;;8.23;;
920;SDS011;447;51.332;6.778;2023-01-24T14:28:21;12.40;;;9.00;;
920;SDS011;447;51.332;6.778;2023-01-24T14:33:58;11.43;;;8.88;;
920;SDS011;447;51.332;6.778;2023-01-24T14:36:32;9.10;;;7.53;;
920;SDS011;447;51.332;6.778;2023-01-24T14:41:49;9.57;;;8.00;;
920;SDS011;447;51.332;6.778;2023-01-24T14:49:25;10.43;;;8.23;;
920;SDS011;447;51.332;6.778;2023-01-24T14:51:56;8.95;;;7.90;;
920;SDS011;447;51.332;6.778;2023-01-24T14:54:23;10.15;;;7.82;;
920;SDS011;447;51.332;6.778;2023-01-24T14:56:49;10.35;;;8.88;;
920;SDS011;447;51.332;6.778;2023-01-24T14:59:18;11.00;;;8.45;;
920;SDS011;447;51.332;6.778;2023-01-24T15:01:48;12.07;;;9.93;;
920;SDS011;447;51.332;6.778;2023-01-24T15:04:20;9.82;;;8.82;;
920;SDS011;447;51.332;6.778;2023-01-24T15:07:02;10.05;;;8.10;;
920;SDS011;447;51.332;6.778;2023-01-24T15:09:39;12.50;;;9.70;;
920;SDS011;447;51.332;6.778;2023-01-24T15:12:18;9.73;;;8.73;;
920;SDS011;447;51.332;6.778;2023-01-24T15:14:52;11.27;;;8.40;;
920;SDS011;447;51.332;6.778;2023-01-24T15:17:27;11.98;;;9.20;;
920;SDS011;447;51.332;6.778;2023-01-24T15:20:05;10.80;;;8.63;;
920;SDS011;447;51.332;6.778;2023-01-24T15:22:38;10.43;;;9.32;;
920;SDS011;447;51.332;6.778;2023-01-24T15:25:22;10.48;;;8.75;;
920;SDS011;447;51.332;6.778;2023-01-24T15:27:55;9.98;;;8.60;;
920;SDS011;447;51.332;6.778;2023-01-24T15:30:25;9.80;;;8.45;;
920;SDS011;447;51.332;6.778;2023-01-24T15:40:36;10.07;;;8.07;;
920;SDS011;447;51.332;6.778;2023-01-24T15:54:40;9.20;;;8.25;;
920;SDS011;447;51.332;6.778;2023-01-24T16:02:28;10.85;;;8.60;;
920;SDS011;447;51.332;6.778;2023-01-24T16:04:59;9.55;;;7.95;;
920;SDS011;447;51.332;6.778;2023-01-24T16:07:26;10.80;;;9.10;;
920;SDS011;447;51.332;6.778;2023-01-24T16:09:57;10.32;;;8.65;;
920;SDS011;447;51.332;6.778;2023-01-24T16:12:25;9.68;;;8.57;;
920;SDS011;447;51.332;6.778;2023-01-24T16:14:54;10.73;;;8.52;;
920;SDS011;447;51.332;6.778;2023-01-24T16:17:21;10.95;;;8.40;;
920;SDS011;447;51.332;6.778;2023-01-24T16:19:52;10.43;;;8.75;;
920;SDS011;447;51.332;6.778;2023-01-24T16:22:23;12.95;;;9.00;;
920;SDS011;447;51.332;6.778;2023-01-24T16:24:49;11.82;;;9.80;;
920;SDS011;447;51.332;6.778;2023-01-24T16:27:17;10.00;;;8.65;;
920;SDS011;447;51.332;6.778;2023-01-24T16:29:43;10.77;;;7.53;;
920;SDS011;447;51.332;6.778;2023-01-24T16:32:18;9.85;;;8.85;;
920;SDS011;447;51.332;6.778;2023-01-24T16:34:46;9.50;;;8.50;;
920;SDS011;447;51.332;6.778;2023-01-24T16:37:15;12.60;;;9.40;;
920;SDS011;447;51.332;6.778;2023-01-24T16:39:43;11.15;;;9.15;;
920;SDS011;447;51.332;6.778;2023-01-24T16:42:15;10.70;;;8.90;;
920;SDS011;447;51.332;6.778;2023-01-24T16:44:53;9.13;;;8.05;;
920;SDS011;447;51.332;6.778;2023-01-24T16:47:19;10.82;;;8.98;;
920;SDS011;447;51.332;6.778;2023-01-24T16:49:47;9.80;;;8.80;;
920;SDS011;447;51.332;6.778;2023-01-24T16:52:19;10.20;;;8.60;;
920;SDS011;447;51.332;6.778;2023-01-24T16:54:48;11.82;;;10.05;;
920;SDS011;447;51.332;6.778;2023-01-24T16:57:18;8.93;;;7.90;;
920;SDS011;447;51.332;6.778;2023-01-24T16:59:51;9.57;;;8.48;;
920;SDS011;447;51.332;6.778;2023-01-24T17:02:19;8.93;;;7.82;;
920;SDS011;447;51.332;6.778;2023-01-24T17:04:49;10.32;;;8.65;;
920;SDS011;447;51.332;6.778;2023-01-24T17:07:18;8.93;;;7.75;;
920;SDS011;447;51.332;6.778;2023-01-24T17:09:49;10.43;;;8.52;;
920;SDS011;447;51.332;6.778;2023-01-24T17:12:17;10.93;;;8.15;;
920;SDS011;447;51.332;6.778;2023-01-24T17:14:43;11.38;;;8.30;;
920;SDS011;447;51.332;6.778;2023-01-24T17:17:13;10.70;;;8.63;;
920;SDS011;447;51.332;6.778;2023-01-24T17:19:43;10.60;;;8.45;;
920;SDS011;447;51.332;6.778;2023-01-24T17:22:12;9.63;;;8.38;;
920;SDS011;447;51.332;6.778;2023-01-24T17:24:41;11.68;;;8.75;;
920;SDS011;447;51.332;6.778;2023-01-24T17:27:06;11.93;;;8.13;;
920;SDS011;447;51.332;6.778;2023-01-24T17:29:35;9.97;;;8.90;;
920;SDS011;447;51.332;6.778;2023-01-24T17:32:01;9.95;;;8.35;;
920;SDS011;447;51.332;6.778;2023-01-24T17:34:29;8.32;;;7.43;;
920;SDS011;447;51.332;6.778;2023-01-24T17:36:55;8.60;;;7.70;;
920;SDS011;447;51.332;6.778;2023-01-24T17:39:23;8.43;;;7.38;;
920;SDS011;447;51.332;6.778;2023-01-24T17:41:52;10.38;;;8.45;;
920;SDS011;447;51.332;6.778;2023-01-24T17:44:18;9.73;;;8.20;;
920;SDS011;447;51.332;6.778;2023-01-24T17:46:47;8.95;;;7.63;;
920;SDS011;447;51.332;6.778;2023-01-24T17:49:13;11.10;;;8.40;;
920;SDS011;447;51.332;6.778;2023-01-24T17:51:44;12.35;;;8.70;;
920;SDS011;447;51.332;6.778;2023-01-24T17:54:16;9.32;;;8.32;;
920;SDS011;447;51.332;6.778;2023-01-24T17:56:47;11.45;;;9.05;;
920;SDS011;447;51.332;6.778;2023-01-24T17:59:16;9.57;;;8.60;;
920;SDS011;447;51.332;6.778;2023-01-24T18:01:50;10.00;;;8.77;;
920;SDS011;447;51.332;6.778;2023-01-24T18:04:16;9.70;;;8.17;;
920;SDS011;447;51.332;6.778;2023-01-24T18:06:44;8.88;;;7.95;;
920;SDS011;447;51.332;6.778;2023-01-24T18:09:10;10.27;;;8.40;;
920;SDS011;447;51.332;6.778;2023-01-24T18:11:41;11.25;;;9.40;;
920;SDS011;447;51.332;6.778;2023-01-24T18:14:08;11.63;;;8.82;;
920;SDS011;447;51.332;6.778;2023-01-24T18:16:37;11.48;;;8.13;;
920;SDS011;447;51.332;6.778;2023-01-24T18:19:10;10.65;;;9.15;;
920;SDS011;447;51.332;6.778;2023-01-24T18:21:36;11.20;;;8.80;;
920;SDS011;447;51.332;6.778;2023-01-24T18:24:02;10.68;;;8.68;;
920;SDS011;447;51.332;6.778;2023-01-24T18:26:31;10.25;;;8.73;;
920;SDS011;447;51.332;6.778;2023-01-24T18:29:02;15.93;;;9.85;;
920;SDS011;447;51.332;6.778;2023-01-24T18:31:29;10.70;;;9.60;;
920;SDS011;447;51.332;6.778;2023-01-24T18:33:56;10.98;;;8.95;;
920;SDS011;447;51.332;6.778;2023-01-24T18:36:25;13.45;;;9.48;;
920;SDS011;447;51.332;6.778;2023-01-24T18:38:55;14.65;;;9.05;;
920;SDS011;447;51.332;6.778;2023-01-24T18:41:21;10.48;;;9.25;;
920;SDS011;447;51.332;6.778;2023-01-24T18:43:48;10.55;;;9.32;;